createdAt,value
2023-01-22T00:01:20.020Z,3.00
2023-01-22T00:03:49.218Z,3.00
2023-01-22T00:06:16.499Z,3.00
2023-01-22T00:08:43.578Z,3.00
2023-01-22T00:11:11.628Z,3.00
2023-01-22T00:13:38.799Z,3.00
2023-01-22T00:16:06.664Z,3.00
2023-01-22T00:18:34.291Z,3.00
2023-01-22T00:21:01.195Z,3.00
2023-01-22T00:23:28.123Z,3.00
2023-01-22T00:26:05.666Z,3.00
2023-01-22T00:28:32.653Z,3.00
2023-01-22T00:31:02.072Z,3.00
2023-01-22T00:33:29.724Z,3.00
2023-01-22T00:35:57.616Z,3.00
2023-01-22T00:38:24.463Z,3.10
2023-01-22T00:40:51.234Z,3.10
2023-01-22T00:43:18.116Z,3.10
2023-01-22T00:45:44.983Z,3.10
2023-01-22T00:48:11.756Z,3.10
2023-01-22T00:50:38.679Z,3.10
2023-01-22T00:53:05.515Z,3.10
2023-01-22T00:55:32.443Z,3.20
2023-01-22T00:57:59.479Z,3.20
2023-01-22T01:00:26.436Z,3.20
2023-01-22T01:03:11.931Z,3.20
2023-01-22T01:05:38.796Z,3.20
2023-01-22T01:08:05.830Z,3.20
2023-01-22T01:10:32.756Z,3.20
2023-01-22T01:12:59.521Z,3.10
2023-01-22T01:15:26.454Z,3.20
2023-01-22T01:17:53.246Z,3.20
2023-01-22T01:20:20.394Z,3.20
2023-01-22T01:22:47.293Z,3.20
2023-01-22T01:25:14.089Z,3.20
2023-01-22T01:27:40.942Z,3.20
2023-01-22T01:30:08.903Z,3.20
2023-01-22T01:32:35.703Z,3.20
2023-01-22T01:35:02.796Z,3.20
2023-01-22T01:37:29.621Z,3.20
2023-01-22T01:39:56.385Z,3.10
2023-01-22T01:42:33.954Z,3.10
2023-01-22T01:45:20.997Z,3.20
2023-01-22T01:48:02.673Z,3.10
2023-01-22T01:50:30.010Z,3.10
2023-01-22T01:53:00.624Z,3.10
2023-01-22T01:55:31.539Z,3.20
2023-01-22T01:58:08.249Z,3.20
2023-01-22T02:00:39.465Z,3.20
2023-01-22T02:03:06.312Z,3.30
2023-01-22T02:05:39.038Z,3.20
2023-01-22T02:08:08.881Z,3.20
2023-01-22T02:10:37.350Z,3.20
2023-01-22T02:13:12.966Z,3.20
2023-01-22T02:15:40.642Z,3.20
2023-01-22T02:18:07.551Z,3.20
2023-01-22T02:20:40.104Z,3.20
2023-01-22T02:23:07.590Z,3.20
2023-01-22T02:25:34.676Z,3.20
2023-01-22T02:28:01.643Z,3.20
2023-01-22T02:30:28.818Z,3.20
2023-01-22T02:32:55.803Z,3.20
2023-01-22T02:35:22.678Z,3.20
2023-01-22T02:37:50.266Z,3.20
2023-01-22T02:40:17.636Z,3.20
2023-01-22T02:42:44.615Z,3.20
2023-01-22T02:45:11.971Z,3.20
2023-01-22T02:47:38.981Z,3.30
2023-01-22T02:50:06.880Z,3.30
2023-01-22T02:52:33.721Z,3.20
2023-01-22T02:55:00.584Z,3.20
2023-01-22T02:57:31.315Z,3.30
2023-01-22T02:59:58.701Z,3.30
2023-01-22T03:02:26.530Z,3.40
2023-01-22T03:05:03.514Z,3.30
2023-01-22T03:07:41.974Z,3.40
2023-01-22T03:10:19.670Z,3.30
2023-01-22T03:13:06.345Z,3.40
2023-01-22T03:15:52.644Z,3.40
2023-01-22T03:18:38.273Z,3.40
2023-01-22T03:21:17.211Z,3.40
2023-01-22T03:23:46.848Z,3.40
2023-01-22T03:26:14.045Z,3.40
2023-01-22T03:28:41.043Z,3.40
2023-01-22T03:31:09.148Z,3.40
2023-01-22T03:33:36.685Z,3.40
2023-01-22T03:36:07.485Z,3.40
2023-01-22T03:38:34.642Z,3.40
2023-01-22T03:41:03.479Z,3.50
2023-01-22T03:43:31.230Z,3.50
2023-01-22T03:46:17.315Z,3.40
2023-01-22T03:48:45.048Z,3.40
2023-01-22T03:51:16.684Z,3.40
2023-01-22T03:53:45.456Z,3.40
2023-01-22T03:56:16.379Z,3.40
2023-01-22T03:58:43.855Z,3.50
2023-01-22T04:01:15.253Z,3.50
2023-01-22T04:03:42.185Z,3.40
2023-01-22T04:06:11.695Z,3.40
2023-01-22T04:08:41.344Z,3.50
2023-01-22T04:11:09.336Z,3.40
2023-01-22T04:13:39.015Z,3.50
2023-01-22T04:16:07.184Z,3.50
2023-01-22T04:18:34.111Z,3.50
2023-01-22T04:21:01.205Z,3.50
2023-01-22T04:23:28.148Z,3.50
2023-01-22T04:25:55.090Z,3.50
2023-01-22T04:28:22.023Z,3.50
2023-01-22T04:30:53.107Z,3.50
2023-01-22T04:33:20.592Z,3.50
2023-01-22T04:35:54.290Z,3.50
2023-01-22T04:38:21.643Z,3.50
2023-01-22T04:40:48.598Z,3.50
2023-01-22T04:43:15.421Z,3.50
2023-01-22T04:45:42.308Z,3.60
2023-01-22T04:48:11.040Z,3.50
2023-01-22T04:50:38.086Z,3.50
2023-01-22T04:53:05.214Z,3.50
2023-01-22T04:55:32.571Z,3.50
2023-01-22T04:58:01.298Z,3.50
2023-01-22T05:00:30.292Z,3.50
2023-01-22T05:03:02.992Z,3.50
2023-01-22T05:05:31.526Z,3.50
2023-01-22T05:07:59.825Z,3.50
2023-01-22T05:10:27.333Z,3.50
2023-01-22T05:12:54.441Z,3.50
2023-01-22T05:15:24.807Z,3.50
2023-01-22T05:17:54.991Z,3.50
2023-01-22T05:20:22.083Z,3.50
2023-01-22T05:22:49.545Z,3.50
2023-01-22T05:25:16.498Z,3.50
2023-01-22T05:27:43.775Z,3.50
2023-01-22T05:30:12.820Z,3.40
2023-01-22T05:32:39.930Z,3.40
2023-01-22T05:35:07.422Z,3.50
2023-01-22T05:37:34.430Z,3.40
2023-01-22T05:40:01.870Z,3.30
2023-01-22T05:42:28.779Z,3.30
2023-01-22T05:44:55.592Z,3.30
2023-01-22T05:47:22.414Z,3.30
2023-01-22T05:49:49.217Z,3.20
2023-01-22T05:52:16.209Z,3.20
2023-01-22T05:54:43.041Z,3.20
2023-01-22T05:57:09.951Z,3.10
2023-01-22T05:59:36.758Z,3.10
2023-01-22T06:02:03.782Z,3.10
2023-01-22T06:04:30.830Z,3.10
2023-01-22T06:06:57.687Z,3.00
2023-01-22T06:09:25.179Z,3.00
2023-01-22T06:11:52.143Z,3.00
2023-01-22T06:14:19.456Z,2.90
2023-01-22T06:16:46.345Z,2.90
2023-01-22T06:19:13.197Z,2.90
2023-01-22T06:21:40.893Z,2.90
2023-01-22T06:24:07.943Z,2.90
2023-01-22T06:26:34.783Z,2.80
2023-01-22T06:29:01.810Z,2.80
2023-01-22T06:31:29.153Z,2.80
2023-01-22T06:33:56.085Z,2.80
2023-01-22T06:36:22.971Z,2.80
2023-01-22T06:38:50.217Z,2.90
2023-01-22T06:41:17.054Z,2.80
2023-01-22T06:43:43.882Z,2.90
2023-01-22T06:46:10.792Z,2.90
2023-01-22T06:48:37.624Z,3.00
2023-01-22T06:51:04.735Z,2.90
2023-01-22T06:53:31.701Z,2.90
2023-01-22T06:56:02.072Z,2.90
2023-01-22T06:58:29.330Z,3.00
2023-01-22T07:01:05.654Z,3.00
2023-01-22T07:03:32.945Z,3.00
2023-01-22T07:06:03.307Z,3.00
2023-01-22T07:08:33.752Z,3.10
2023-01-22T07:11:01.541Z,3.10
2023-01-22T07:13:28.504Z,3.10
2023-01-22T07:15:55.758Z,3.10
2023-01-22T07:18:24.028Z,3.20
2023-01-22T07:20:51.162Z,3.20
2023-01-22T07:23:18.109Z,3.20
2023-01-22T07:25:45.818Z,3.20
2023-01-22T07:28:15.089Z,3.20
2023-01-22T07:30:44.281Z,3.20
2023-01-22T07:33:12.208Z,3.20
2023-01-22T07:35:39.668Z,3.20
2023-01-22T07:38:07.475Z,3.20
2023-01-22T07:40:35.079Z,3.20
2023-01-22T07:43:06.934Z,3.30
2023-01-22T07:45:34.535Z,3.20
2023-01-22T07:48:02.604Z,3.30
2023-01-22T07:50:31.734Z,3.30
2023-01-22T07:53:00.654Z,3.30
2023-01-22T07:55:27.758Z,3.30
2023-01-22T07:58:04.542Z,3.40
2023-01-22T08:00:34.841Z,3.30
2023-01-22T08:03:04.873Z,3.40
2023-01-22T08:05:32.017Z,3.40
2023-01-22T08:07:59.175Z,3.40
2023-01-22T08:10:26.448Z,3.50
2023-01-22T08:12:53.296Z,3.50
2023-01-22T08:15:20.205Z,3.50
2023-01-22T08:17:51.136Z,3.60
2023-01-22T08:20:19.128Z,3.50
2023-01-22T08:22:46.197Z,3.50
2023-01-22T08:25:13.126Z,3.60
2023-01-22T08:27:40.033Z,3.60
2023-01-22T08:30:08.824Z,3.60
2023-01-22T08:32:35.817Z,3.70
2023-01-22T08:35:02.647Z,3.70
2023-01-22T08:37:29.516Z,3.70
2023-01-22T08:39:56.427Z,3.80
2023-01-22T08:42:23.275Z,3.80
2023-01-22T08:44:50.047Z,3.90
2023-01-22T08:47:17.113Z,3.90
2023-01-22T08:49:44.022Z,3.90
2023-01-22T08:52:10.907Z,4.00
2023-01-22T08:54:37.742Z,4.10
2023-01-22T08:57:05.056Z,4.10
2023-01-22T08:59:32.021Z,4.20
2023-01-22T09:02:01.263Z,4.20
2023-01-22T09:04:28.683Z,4.30
2023-01-22T09:06:55.670Z,4.40
2023-01-22T09:09:23.263Z,4.40
2023-01-22T09:11:50.313Z,4.60
2023-01-22T09:14:17.199Z,4.60
2023-01-22T09:16:44.052Z,4.70
2023-01-22T09:19:12.046Z,4.70
2023-01-22T09:21:39.021Z,4.80
2023-01-22T09:24:06.975Z,4.90
2023-01-22T09:26:34.619Z,4.90
2023-01-22T09:29:01.592Z,5.00
2023-01-22T09:31:28.579Z,5.10
2023-01-22T09:33:55.732Z,5.20
2023-01-22T09:36:22.936Z,5.30
2023-01-22T09:38:49.798Z,5.30
2023-01-22T09:41:30.493Z,5.50
2023-01-22T09:44:23.479Z,5.40
2023-01-22T09:47:18.291Z,5.50
2023-01-22T09:50:02.653Z,5.50
2023-01-22T09:52:34.696Z,5.50
2023-01-22T09:55:01.625Z,5.50
2023-01-22T09:57:32.501Z,5.50
2023-01-22T09:59:59.756Z,5.50
2023-01-22T10:02:56.379Z,5.40
2023-01-22T10:05:51.411Z,5.40
2023-01-22T10:09:24.142Z,5.40
2023-01-22T10:11:55.262Z,5.40
2023-01-22T10:14:29.252Z,5.40
2023-01-22T10:17:01.586Z,5.40
2023-01-22T10:19:42.811Z,5.40
2023-01-22T10:22:24.229Z,5.50
2023-01-22T10:24:52.556Z,5.50
2023-01-22T10:27:31.370Z,5.60
2023-01-22T10:30:25.609Z,5.60
2023-01-22T10:33:07.352Z,5.60
2023-01-22T10:35:47.319Z,5.60
2023-01-22T10:38:30.770Z,5.60
2023-01-22T10:41:03.742Z,5.70
2023-01-22T10:43:53.263Z,5.70
2023-01-22T10:46:26.274Z,5.70
2023-01-22T10:49:05.957Z,5.70
2023-01-22T10:51:43.845Z,5.70
2023-01-22T10:54:40.402Z,5.70
2023-01-22T10:57:31.436Z,5.80
2023-01-22T11:00:14.298Z,5.90
2023-01-22T11:02:45.930Z,5.90
2023-01-22T11:05:24.196Z,6.00
2023-01-22T11:08:05.530Z,6.20
2023-01-22T11:10:57.942Z,6.30
2023-01-22T11:14:00.940Z,6.40
2023-01-22T11:16:33.422Z,6.50
2023-01-22T11:19:36.528Z,6.50
2023-01-22T11:22:15.337Z,6.50
2023-01-22T11:24:49.891Z,6.50
2023-01-22T11:27:43.553Z,6.40
2023-01-22T11:30:46.143Z,6.50
2023-01-22T11:33:55.985Z,6.50
2023-01-22T11:36:51.594Z,6.50
2023-01-22T11:39:45.146Z,6.50
2023-01-22T11:42:35.926Z,6.50
2023-01-22T11:45:17.138Z,6.40
2023-01-22T11:48:41.710Z,6.40
2023-01-22T11:51:33.040Z,6.30
2023-01-22T11:54:45.004Z,6.30
2023-01-22T11:57:22.573Z,6.20
2023-01-22T12:00:12.925Z,6.20
2023-01-22T12:03:26.902Z,6.10
2023-01-22T12:06:16.999Z,6.10
2023-01-22T12:09:02.354Z,6.00
2023-01-22T12:12:13.547Z,6.00
2023-01-22T12:14:49.990Z,6.00
2023-01-22T12:17:41.948Z,5.90
2023-01-22T12:20:42.797Z,5.90
2023-01-22T12:23:33.829Z,5.90
2023-01-22T12:26:26.268Z,5.90
2023-01-22T12:29:02.574Z,5.90
2023-01-22T12:31:39.008Z,6.00
2023-01-22T12:34:29.112Z,6.10
2023-01-22T12:36:56.392Z,6.10
2023-01-22T12:39:33.019Z,6.10
2023-01-22T12:42:23.789Z,6.10
2023-01-22T12:45:07.145Z,6.10
2023-01-22T12:47:46.003Z,6.10
2023-01-22T12:50:23.825Z,6.10
2023-01-22T12:53:04.806Z,6.00
2023-01-22T12:55:36.143Z,5.90
2023-01-22T12:58:04.792Z,5.90
2023-01-22T13:00:39.106Z,5.80
2023-01-22T13:03:32.898Z,5.80
2023-01-22T13:06:04.381Z,5.70
2023-01-22T13:08:44.828Z,5.70
2023-01-22T13:11:40.547Z,5.70
2023-01-22T13:14:42.851Z,5.60
2023-01-22T13:17:24.643Z,5.60
2023-01-22T13:19:52.662Z,5.50
2023-01-22T13:22:27.967Z,5.60
2023-01-22T13:24:56.980Z,5.50
2023-01-22T13:27:30.647Z,5.50
2023-01-22T13:30:20.157Z,5.40
2023-01-22T13:32:47.459Z,5.40
2023-01-22T13:35:19.549Z,5.30
2023-01-22T13:37:51.556Z,5.30
2023-01-22T13:40:24.713Z,5.20
2023-01-22T13:42:53.164Z,5.20
2023-01-22T13:45:26.166Z,5.10
2023-01-22T13:48:06.610Z,5.00
2023-01-22T13:50:34.499Z,5.00
2023-01-22T13:53:03.479Z,4.90
2023-01-22T13:55:31.589Z,4.90
2023-01-22T13:58:01.685Z,4.90
2023-01-22T14:00:39.565Z,4.90
2023-01-22T14:03:24.760Z,4.90
2023-01-22T14:06:13.020Z,4.90
2023-01-22T14:08:52.803Z,4.90
2023-01-22T14:11:21.183Z,4.90
2023-01-22T14:13:52.086Z,4.90
2023-01-22T14:16:19.651Z,4.90
2023-01-22T14:18:47.268Z,4.80
2023-01-22T14:21:14.927Z,4.80
2023-01-22T14:23:42.709Z,4.80
2023-01-22T14:26:10.026Z,4.80
2023-01-22T14:28:37.628Z,4.70
2023-01-22T14:31:05.361Z,4.70
2023-01-22T14:33:34.862Z,4.70
2023-01-22T14:36:01.959Z,4.70
2023-01-22T14:38:28.893Z,4.70
2023-01-22T14:40:55.883Z,4.60
2023-01-22T14:43:23.156Z,4.60
2023-01-22T14:45:55.190Z,4.60
2023-01-22T14:48:22.780Z,4.60
2023-01-22T14:50:51.066Z,4.60
2023-01-22T14:53:19.531Z,4.50
2023-01-22T14:55:46.969Z,4.50
2023-01-22T14:58:15.190Z,4.50
2023-01-22T15:00:42.686Z,4.50
2023-01-22T15:03:09.597Z,4.50
2023-01-22T15:05:36.484Z,4.50
2023-01-22T15:08:03.884Z,4.40
2023-01-22T15:10:30.738Z,4.40
2023-01-22T15:12:57.636Z,4.40
2023-01-22T15:15:26.933Z,4.40
2023-01-22T15:17:55.460Z,4.30
2023-01-22T15:20:22.401Z,4.30
2023-01-22T15:22:49.890Z,4.30
2023-01-22T15:25:17.536Z,4.30
2023-01-22T15:30:27.464Z,4.20
2023-01-22T15:32:54.302Z,4.20
2023-01-22T15:35:21.148Z,4.20
2023-01-22T15:37:48.507Z,4.10
2023-01-22T15:40:16.319Z,4.20
2023-01-22T15:42:43.308Z,4.10
2023-01-22T15:45:19.410Z,4.00
2023-01-22T15:47:46.204Z,4.00
2023-01-22T15:50:20.081Z,3.90
2023-01-22T15:52:47.237Z,3.90
2023-01-22T15:55:14.212Z,3.90
2023-01-22T15:57:42.205Z,3.80
2023-01-22T16:11:09.853Z,3.70
2023-01-22T16:13:37.727Z,3.70
2023-01-22T16:16:32.094Z,3.80
2023-01-22T16:19:01.981Z,3.80
2023-01-22T16:21:29.224Z,3.70
2023-01-22T16:23:59.627Z,3.60
2023-01-22T16:26:31.052Z,3.60
2023-01-22T16:29:00.255Z,3.60
2023-01-22T16:31:31.061Z,3.60
2023-01-22T16:34:01.153Z,3.60
2023-01-22T16:36:32.437Z,3.60
2023-01-22T16:39:00.485Z,3.50
2023-01-22T16:41:34.255Z,3.50
2023-01-22T16:44:06.885Z,3.50
2023-01-22T16:46:38.435Z,3.50
2023-01-22T16:49:11.810Z,3.50
2023-01-22T16:51:42.986Z,3.50
2023-01-22T16:54:33.909Z,3.50
2023-01-22T16:57:03.631Z,3.40
2023-01-22T16:59:36.488Z,3.50
2023-01-22T17:02:07.979Z,3.40
2023-01-22T17:04:35.013Z,3.40
2023-01-22T17:07:01.865Z,3.40
2023-01-22T17:09:33.208Z,3.30
2023-01-22T17:12:03.494Z,3.30
2023-01-22T17:14:35.688Z,3.30
2023-01-22T17:17:04.948Z,3.30
2023-01-22T17:19:32.828Z,3.30
2023-01-22T17:22:01.731Z,3.30
2023-01-22T17:24:30.887Z,3.30
2023-01-22T17:26:58.790Z,3.30
2023-01-22T17:29:26.043Z,3.30
2023-01-22T17:31:53.570Z,3.30
2023-01-22T17:34:20.692Z,3.30
2023-01-22T17:36:50.670Z,3.20
2023-01-22T17:39:19.991Z,3.20
2023-01-22T17:41:47.454Z,3.20
2023-01-22T17:44:17.530Z,3.20
2023-01-22T17:46:49.177Z,3.20
2023-01-22T17:49:16.625Z,3.20
2023-01-22T17:51:43.677Z,3.30
2023-01-22T17:54:10.771Z,3.10
2023-01-22T17:56:45.715Z,3.10
2023-01-22T17:59:13.011Z,3.00
2023-01-22T18:01:40.618Z,3.00
2023-01-22T18:04:10.938Z,3.00
2023-01-22T18:06:41.309Z,3.00
2023-01-22T18:09:10.548Z,3.00
2023-01-22T18:11:39.514Z,2.90
2023-01-22T18:14:11.650Z,2.90
2023-01-22T18:16:40.922Z,2.90
2023-01-22T18:19:08.588Z,2.90
2023-01-22T18:21:38.505Z,2.90
2023-01-22T18:24:08.451Z,2.80
2023-01-22T18:26:36.070Z,2.80
2023-01-22T18:29:04.588Z,2.80
2023-01-22T18:31:32.793Z,2.70
2023-01-22T18:34:02.400Z,2.80
2023-01-22T18:36:39.857Z,2.70
2023-01-22T18:39:15.131Z,2.70
2023-01-22T18:41:44.618Z,2.60
2023-01-22T18:44:14.567Z,2.60
2023-01-22T18:46:45.143Z,2.60
2023-01-22T18:49:18.616Z,2.60
2023-01-22T18:51:46.264Z,2.50
2023-01-22T18:54:13.504Z,2.50
2023-01-22T18:56:40.581Z,2.50
2023-01-22T18:59:07.946Z,2.50
2023-01-22T19:01:38.372Z,2.50
2023-01-22T19:04:09.579Z,2.40
2023-01-22T19:06:38.821Z,2.40
2023-01-22T19:09:14.150Z,2.30
2023-01-22T19:11:45.387Z,2.30
2023-01-22T19:14:17.231Z,2.30
2023-01-22T19:16:45.061Z,2.30
2023-01-22T19:19:13.662Z,2.20
2023-01-22T19:21:47.107Z,2.30
2023-01-22T19:24:17.513Z,2.20
2023-01-22T19:26:46.557Z,2.20
2023-01-22T19:29:17.585Z,2.20
2023-01-22T19:31:51.874Z,2.10
2023-01-22T19:34:24.928Z,2.20
2023-01-22T19:36:56.777Z,2.10
2023-01-22T19:39:27.726Z,2.10
2023-01-22T19:41:55.422Z,2.00
2023-01-22T19:44:22.462Z,2.00
2023-01-22T19:46:49.648Z,2.00
2023-01-22T19:49:16.639Z,2.00
2023-01-22T19:51:43.718Z,2.00
2023-01-22T19:54:11.689Z,2.00
2023-01-22T19:56:41.964Z,2.00
2023-01-22T19:59:17.248Z,1.90
2023-01-22T20:01:45.929Z,2.00
2023-01-22T20:04:26.925Z,2.00
2023-01-22T20:07:01.296Z,2.00
2023-01-22T20:09:30.166Z,2.00
2023-01-22T20:11:58.240Z,2.00
2023-01-22T20:14:38.937Z,1.90
2023-01-22T20:17:06.271Z,1.90
2023-01-22T20:19:33.527Z,1.90
2023-01-22T20:22:03.072Z,1.90
2023-01-22T20:24:30.027Z,2.00
2023-01-22T20:26:58.564Z,2.00
2023-01-22T20:29:25.771Z,2.00
2023-01-22T20:31:53.832Z,2.00
2023-01-22T20:34:21.677Z,2.00
2023-01-22T20:36:48.991Z,2.00
2023-01-22T20:39:16.209Z,2.10
2023-01-22T20:41:44.073Z,2.10
2023-01-22T20:44:12.289Z,2.10
2023-01-22T20:46:41.264Z,2.10
2023-01-22T20:49:08.873Z,2.10
2023-01-22T20:51:36.910Z,2.10
2023-01-22T20:54:04.978Z,2.10
2023-01-22T20:56:33.887Z,2.20
2023-01-22T20:59:09.851Z,2.20
2023-01-22T21:01:37.580Z,2.20
2023-01-22T21:04:05.082Z,2.20
2023-01-22T21:06:34.631Z,2.20
2023-01-22T21:09:01.986Z,2.20
2023-01-22T21:11:31.998Z,2.10
2023-01-22T21:14:01.668Z,2.10
2023-01-22T21:16:32.506Z,2.10
2023-01-22T21:19:04.560Z,2.10
2023-01-22T21:21:33.655Z,2.00
2023-01-22T21:24:01.198Z,2.00
2023-01-22T21:26:31.216Z,2.00
2023-01-22T21:29:10.054Z,1.90
2023-01-22T21:31:37.441Z,1.90
2023-01-22T21:34:07.886Z,1.90
2023-01-22T21:36:40.653Z,1.90
2023-01-22T21:39:14.430Z,1.80
2023-01-22T21:41:41.898Z,1.80
2023-01-22T21:44:31.615Z,1.80
2023-01-22T21:46:59.043Z,1.80
2023-01-22T21:49:26.585Z,1.80
2023-01-22T21:51:57.392Z,1.80
2023-01-22T21:54:28.651Z,1.70
2023-01-22T21:56:56.827Z,1.70
2023-01-22T21:59:24.154Z,1.70
2023-01-22T22:01:53.657Z,1.60
2023-01-22T22:04:25.665Z,1.70
2023-01-22T22:06:53.549Z,1.60
2023-01-22T22:09:27.413Z,1.60
2023-01-22T22:12:00.235Z,1.50
2023-01-22T22:14:27.470Z,1.50
2023-01-22T22:16:55.036Z,1.40
2023-01-22T22:19:23.658Z,1.40
2023-01-22T22:21:51.316Z,1.40
2023-01-22T22:24:19.923Z,1.30
2023-01-22T22:26:47.162Z,1.30
2023-01-22T22:29:13.994Z,1.30
2023-01-22T22:31:40.845Z,1.20
2023-01-22T22:34:07.965Z,1.20
2023-01-22T22:36:35.334Z,1.20
2023-01-22T22:39:03.131Z,1.10
2023-01-22T22:41:33.238Z,1.10
2023-01-22T22:44:00.268Z,1.10
2023-01-22T22:46:31.527Z,1.10
2023-01-22T22:49:00.713Z,1.10
2023-01-22T22:51:39.688Z,1.10
2023-01-22T22:54:17.313Z,1.10
2023-01-22T22:56:46.627Z,1.00
2023-01-22T22:59:15.095Z,1.00
2023-01-22T23:01:42.123Z,0.90
2023-01-22T23:04:10.785Z,0.90
2023-01-22T23:06:37.887Z,1.00
2023-01-22T23:09:06.709Z,0.90
2023-01-22T23:11:35.763Z,0.80
2023-01-22T23:14:03.982Z,0.70
2023-01-22T23:16:35.387Z,0.60
2023-01-22T23:19:07.702Z,0.60
2023-01-22T23:21:41.386Z,0.60
2023-01-22T23:24:13.945Z,0.50
2023-01-22T23:26:43.505Z,0.40
2023-01-22T23:29:14.052Z,0.30
2023-01-22T23:31:41.473Z,0.20
2023-01-22T23:34:14.170Z,0.20
2023-01-22T23:36:44.333Z,0.00
2023-01-22T23:39:14.469Z,0.00
2023-01-22T23:41:42.670Z,-0.20
2023-01-22T23:44:09.886Z,-0.20
2023-01-22T23:46:36.853Z,-0.30
2023-01-22T23:49:06.074Z,-0.30
2023-01-22T23:51:33.331Z,-0.40
2023-01-22T23:54:00.246Z,-0.40
2023-01-22T23:56:32.196Z,-0.40
2023-01-22T23:58:59.724Z,-0.40
